createdAt,value
2022-08-19T04:10:42.939Z,996.94
2022-08-19T04:11:45.182Z,996.94
2022-08-19T04:12:52.547Z,996.94
2022-08-19T04:13:53.792Z,996.96
2022-08-19T04:14:49.738Z,996.94
2022-08-19T04:15:57.870Z,996.91
2022-08-19T04:16:59.047Z,996.97
2022-08-19T04:17:54.181Z,996.95
2022-08-19T04:18:56.260Z,996.97
2022-08-19T04:19:58.298Z,997.05
2022-08-19T04:21:05.475Z,997.06
2022-08-19T04:22:01.909Z,997.08
2022-08-19T04:23:03.033Z,997.10
2022-08-19T04:24:04.211Z,997.12
2022-08-19T04:25:05.350Z,997.12
2022-08-19T04:26:13.427Z,997.11
2022-08-19T04:27:08.513Z,997.06
2022-08-19T04:28:10.582Z,997.04
2022-08-19T04:29:12.653Z,997.04
2022-08-19T04:30:13.295Z,997.00
2022-08-19T04:31:15.659Z,996.95
2022-08-19T04:32:16.556Z,996.93
2022-08-19T04:33:18.198Z,996.91
2022-08-19T04:34:20.389Z,996.90
2022-08-19T04:35:27.376Z,996.88
2022-08-19T04:36:28.506Z,996.84
2022-08-19T04:37:24.953Z,996.79
2022-08-19T04:38:27.086Z,996.73
2022-08-19T04:39:28.716Z,996.69
2022-08-19T04:40:31.013Z,996.67
2022-08-19T04:41:33.086Z,996.70
2022-08-19T04:42:35.501Z,996.69
2022-08-19T04:43:36.627Z,996.71
2022-08-19T04:45:46.445Z,996.66
2022-08-19T04:46:51.437Z,996.64
2022-08-19T04:47:48.038Z,996.64
2022-08-19T04:48:50.872Z,996.64
2022-08-19T04:49:45.510Z,996.69
2022-08-19T04:50:47.574Z,996.70
2022-08-19T04:51:49.726Z,996.75
2022-08-19T04:52:52.070Z,996.78
2022-08-19T04:53:53.163Z,996.83
2022-08-19T04:54:55.241Z,996.79
2022-08-19T04:55:57.304Z,996.79
2022-08-19T04:56:59.033Z,996.80
2022-08-19T04:58:07.160Z,996.78
2022-08-19T04:59:02.235Z,996.83
2022-08-19T05:00:04.535Z,996.83
2022-08-19T05:01:05.563Z,996.77
2022-08-19T05:02:07.669Z,996.79
2022-08-19T05:03:09.924Z,996.86
2022-08-19T05:04:11.058Z,996.87
2022-08-19T05:05:13.643Z,996.88
2022-08-19T05:06:14.541Z,996.85
2022-08-19T05:07:16.612Z,996.86
2022-08-19T05:08:18.909Z,996.86
2022-08-19T05:09:21.300Z,996.86
2022-08-19T05:10:21.532Z,996.84
2022-08-19T05:11:26.527Z,996.88
2022-08-19T05:12:31.394Z,996.90
2022-08-19T05:14:28.510Z,996.89
2022-08-19T05:15:30.249Z,996.84
2022-08-19T05:16:37.495Z,996.83
2022-08-19T05:17:39.403Z,996.82
2022-08-19T05:18:34.767Z,996.87
2022-08-19T05:19:36.837Z,996.88
2022-08-19T05:20:38.475Z,996.87
2022-08-19T05:21:40.546Z,996.83
2022-08-19T05:22:48.898Z,996.83
2022-08-19T05:23:50.276Z,996.85
2022-08-19T05:25:09.376Z,996.87
2022-08-19T05:25:47.778Z,996.90
2022-08-19T05:26:48.880Z,996.84
2022-08-19T05:27:50.019Z,996.86
2022-08-19T05:28:54.770Z,996.96
2022-08-19T05:29:54.018Z,996.94
2022-08-19T05:30:54.938Z,996.96
2022-08-19T05:31:56.094Z,996.94
2022-08-19T05:32:58.294Z,996.94
2022-08-19T05:34:00.138Z,996.99
2022-08-19T05:35:01.302Z,997.01
2022-08-19T05:36:08.529Z,997.04
2022-08-19T05:37:09.941Z,997.02
2022-08-19T05:38:06.184Z,997.04
2022-08-19T05:39:08.256Z,997.09
2022-08-19T05:40:15.679Z,997.08
2022-08-19T05:41:11.520Z,997.09
2022-08-19T05:42:18.937Z,997.09
2022-08-19T05:43:14.135Z,997.12
2022-08-19T05:44:16.210Z,997.11
2022-08-19T05:45:18.297Z,997.18
2022-08-19T05:46:27.851Z,997.16
2022-08-19T05:47:22.568Z,997.14
2022-08-19T05:48:23.803Z,997.18
2022-08-19T05:49:24.923Z,997.20
2022-08-19T05:50:27.092Z,997.24
2022-08-19T05:51:29.303Z,997.27
2022-08-19T05:52:29.846Z,997.36
2022-08-19T05:53:31.309Z,997.39
2022-08-19T05:54:32.652Z,997.43
2022-08-19T05:55:34.725Z,997.45
2022-08-19T05:56:35.848Z,997.50
2022-08-19T05:57:37.962Z,997.47
2022-08-19T05:58:40.252Z,997.48
2022-08-19T05:59:41.397Z,997.43
2022-08-19T06:00:42.580Z,997.44
2022-08-19T06:01:43.713Z,997.45
2022-08-19T06:03:46.799Z,997.38
2022-08-19T06:04:48.138Z,997.38
2022-08-19T06:05:52.129Z,997.38
2022-08-19T06:06:51.114Z,997.36
2022-08-19T06:07:52.946Z,997.37
2022-08-19T06:08:54.235Z,997.37
2022-08-19T06:10:00.682Z,997.38
2022-08-19T06:10:57.573Z,997.39
2022-08-19T06:11:59.672Z,997.39
2022-08-19T06:13:01.252Z,997.38
2022-08-19T06:14:03.542Z,997.37
2022-08-19T06:15:04.890Z,997.35
2022-08-19T06:16:06.215Z,997.34
2022-08-19T06:17:07.738Z,997.32
2022-08-19T06:18:08.657Z,997.36
2022-08-19T06:19:10.349Z,997.34
2022-08-19T06:20:11.267Z,997.34
2022-08-19T06:21:13.774Z,997.32
2022-08-19T06:22:14.689Z,997.27
2022-08-19T06:23:24.376Z,997.30
2022-08-19T06:24:17.232Z,997.29
2022-08-19T06:25:18.483Z,997.28
2022-08-19T06:26:20.571Z,997.32
2022-08-19T06:27:21.969Z,997.32
2022-08-19T06:28:23.408Z,997.34
2022-08-19T06:29:24.374Z,997.37
2022-08-19T06:30:26.566Z,997.38
2022-08-19T06:31:27.474Z,997.41
2022-08-19T06:32:29.758Z,997.51
2022-08-19T06:33:31.831Z,997.52
2022-08-19T06:34:32.952Z,997.53
2022-08-19T06:35:36.214Z,997.60
2022-08-19T06:36:36.207Z,997.62
2022-08-19T06:37:40.836Z,997.69
2022-08-19T06:38:39.451Z,997.78
2022-08-19T06:39:41.805Z,997.81
2022-08-19T06:41:49.336Z,997.89
2022-08-19T06:42:54.279Z,997.93
2022-08-19T06:43:49.185Z,997.97
2022-08-19T06:44:50.310Z,998.04
2022-08-19T06:45:52.341Z,998.06
2022-08-19T06:46:55.013Z,998.11
2022-08-19T06:47:55.135Z,998.14
2022-08-19T06:48:57.430Z,998.20
2022-08-19T06:50:01.410Z,998.26
2022-08-19T06:50:59.540Z,998.23
2022-08-19T06:52:01.954Z,998.27
2022-08-19T06:53:04.683Z,998.25
2022-08-19T06:54:04.244Z,998.28
2022-08-19T06:55:06.907Z,998.25
2022-08-19T06:56:07.902Z,998.29
2022-08-19T06:57:10.189Z,998.33
2022-08-19T06:58:11.299Z,998.33
2022-08-19T06:59:13.379Z,998.39
2022-08-19T07:00:14.834Z,998.38
2022-08-19T07:01:16.208Z,998.41
2022-08-19T07:03:19.628Z,998.46
2022-08-19T07:04:20.735Z,998.47
2022-08-19T07:05:21.963Z,998.48
2022-08-19T07:06:44.993Z,998.48
2022-08-19T07:07:25.485Z,998.49
2022-08-19T07:08:31.388Z,998.53
2022-08-19T07:09:26.516Z,998.54
2022-08-19T07:10:28.603Z,998.52
2022-08-19T07:12:38.447Z,998.61
2022-08-19T07:13:39.817Z,998.61
2022-08-19T07:14:35.787Z,998.65
2022-08-19T07:15:38.218Z,998.64
2022-08-19T07:16:42.525Z,998.67
2022-08-19T07:17:39.809Z,998.67
2022-08-19T07:18:41.901Z,998.65
2022-08-19T07:19:44.082Z,998.69
2022-08-19T07:20:45.295Z,998.69
2022-08-19T07:21:46.464Z,998.70
2022-08-19T07:22:47.880Z,998.68
2022-08-19T07:23:50.114Z,998.75
2022-08-19T07:24:52.264Z,998.72
2022-08-19T07:25:54.037Z,998.77
2022-08-19T07:26:55.158Z,998.76
2022-08-19T07:27:56.662Z,998.74
2022-08-19T07:28:57.857Z,998.72
2022-08-19T07:29:59.999Z,998.75
2022-08-19T07:31:02.079Z,998.79
2022-08-19T07:32:03.627Z,998.74
2022-08-19T07:33:05.567Z,998.72
2022-08-19T07:34:06.895Z,998.70
2022-08-19T07:35:09.017Z,998.72
2022-08-19T07:36:10.721Z,998.67
2022-08-19T07:37:12.131Z,998.68
2022-08-19T07:38:13.480Z,998.67
2022-08-19T07:39:21.607Z,998.66
2022-08-19T07:40:17.146Z,998.64
2022-08-19T07:41:19.303Z,998.65
2022-08-19T07:42:21.403Z,998.61
2022-08-19T07:43:23.445Z,998.61
2022-08-19T07:44:25.541Z,998.58
2022-08-19T07:45:33.679Z,998.60
2022-08-19T07:46:29.086Z,998.64
2022-08-19T07:47:49.461Z,998.59
2022-08-19T07:48:33.316Z,998.62
2022-08-19T07:49:34.482Z,998.61
2022-08-19T07:50:35.643Z,998.58
2022-08-19T07:51:37.258Z,998.60
2022-08-19T07:53:40.200Z,998.68
2022-08-19T07:54:42.275Z,998.69
2022-08-19T07:55:50.409Z,998.72
2022-08-19T07:56:45.555Z,998.70
2022-08-19T07:57:53.691Z,998.76
2022-08-19T07:58:49.521Z,998.74
2022-08-19T07:59:51.678Z,998.72
2022-08-19T08:00:53.766Z,998.70
2022-08-19T08:01:55.940Z,998.73
2022-08-19T08:02:58.118Z,998.70
2022-08-19T08:03:59.083Z,998.71
2022-08-19T08:05:00.689Z,998.73
2022-08-19T08:06:02.760Z,998.74
2022-08-19T08:07:04.874Z,998.77
2022-08-19T08:08:09.028Z,998.74
2022-08-19T08:09:16.433Z,998.76
2022-08-19T08:10:20.650Z,998.78
2022-08-19T08:11:12.645Z,998.73
2022-08-19T08:12:32.936Z,998.76
2022-08-19T08:13:15.961Z,998.77
2022-08-19T08:14:29.443Z,998.79
2022-08-19T08:15:19.061Z,998.76
2022-08-19T08:16:20.571Z,998.79
2022-08-19T08:17:48.631Z,998.82
2022-08-19T08:18:23.661Z,998.82
2022-08-19T08:20:26.330Z,998.84
2022-08-19T08:21:28.457Z,998.84
2022-08-19T08:22:29.804Z,998.84
2022-08-19T08:23:37.048Z,998.87
2022-08-19T08:24:32.618Z,998.87
2022-08-19T08:25:34.216Z,998.86
2022-08-19T08:26:37.483Z,998.86
2022-08-19T08:27:37.353Z,998.90
2022-08-19T08:28:38.546Z,998.94
2022-08-19T08:29:40.144Z,998.91
2022-08-19T08:30:42.424Z,998.92
2022-08-19T08:31:43.964Z,998.93
2022-08-19T08:32:45.105Z,998.92
2022-08-19T08:33:46.403Z,998.96
2022-08-19T08:34:51.754Z,998.93
2022-08-19T08:35:50.541Z,998.94
2022-08-19T08:36:57.718Z,998.94
2022-08-19T08:37:53.412Z,998.93
2022-08-19T08:39:55.790Z,998.96
2022-08-19T08:40:56.854Z,998.96
2022-08-19T08:42:10.447Z,998.96
2022-08-19T08:44:02.324Z,998.97
2022-08-19T08:45:04.673Z,998.94
2022-08-19T08:46:06.156Z,998.94
2022-08-19T08:47:13.655Z,998.96
2022-08-19T08:48:23.849Z,998.97
2022-08-19T08:49:11.605Z,999.00
2022-08-19T08:50:11.381Z,999.03
2022-08-19T08:51:12.787Z,999.00
2022-08-19T08:52:15.004Z,999.08
2022-08-19T08:53:15.211Z,999.08
2022-08-19T08:54:17.413Z,999.08
2022-08-19T08:55:18.317Z,999.12
2022-08-19T08:56:25.523Z,999.12
2022-08-19T08:57:21.536Z,999.14
2022-08-19T08:58:23.684Z,999.17
2022-08-19T08:59:24.801Z,999.16
2022-08-19T09:00:25.927Z,999.17
2022-08-19T09:02:28.773Z,999.15
2022-08-19T09:03:31.585Z,999.22
2022-08-19T09:04:32.867Z,999.14
2022-08-19T09:05:41.449Z,999.11
2022-08-19T09:06:36.605Z,999.13
2022-08-19T09:07:38.842Z,999.14
2022-08-19T09:08:39.562Z,999.15
2022-08-19T09:09:42.021Z,999.11
2022-08-19T09:10:44.268Z,999.14
2022-08-19T09:11:44.640Z,999.14
2022-08-19T09:12:45.084Z,999.12
2022-08-19T09:13:53.102Z,999.15
2022-08-19T09:14:51.269Z,999.07
2022-08-19T09:15:49.359Z,999.05
2022-08-19T09:16:50.495Z,999.06
2022-08-19T09:17:51.712Z,998.99
2022-08-19T09:18:53.050Z,999.02
2022-08-19T09:19:54.852Z,998.95
2022-08-19T09:20:55.819Z,998.99
2022-08-19T09:22:03.832Z,999.00
2022-08-19T09:23:00.131Z,999.00
2022-08-19T09:24:08.470Z,999.02
2022-08-19T09:25:03.549Z,999.09
2022-08-19T09:26:05.464Z,999.04
2022-08-19T09:27:18.495Z,999.10
2022-08-19T09:28:22.674Z,999.06
2022-08-19T09:29:11.229Z,999.08
2022-08-19T09:30:12.379Z,999.09
2022-08-19T09:31:14.529Z,999.12
2022-08-19T09:32:26.755Z,999.13
2022-08-19T09:33:18.370Z,999.15
2022-08-19T09:34:21.751Z,999.17
2022-08-19T09:35:20.869Z,999.16
2022-08-19T09:36:34.584Z,999.11
2022-08-19T09:37:26.309Z,999.09
2022-08-19T09:38:26.742Z,999.13
2022-08-19T09:39:35.942Z,999.17
2022-08-19T09:40:33.470Z,999.18
2022-08-19T09:41:32.049Z,999.18
2022-08-19T09:42:35.288Z,999.20
2022-08-19T09:43:44.684Z,999.15
2022-08-19T09:44:36.530Z,999.09
2022-08-19T09:45:37.478Z,999.05
2022-08-19T09:46:39.544Z,999.03
2022-08-19T09:47:40.896Z,999.01
2022-08-19T09:48:42.288Z,998.98
2022-08-19T09:49:44.116Z,998.98
2022-08-19T09:50:52.013Z,998.97
2022-08-19T09:51:51.040Z,999.04
2022-08-19T09:52:55.253Z,999.00
2022-08-19T09:53:49.890Z,999.09
2022-08-19T09:54:56.664Z,999.09
2022-08-19T09:55:51.982Z,999.11
2022-08-19T09:56:54.161Z,999.09
2022-08-19T09:57:55.526Z,999.10
2022-08-19T09:58:56.664Z,999.07
2022-08-19T09:59:57.578Z,999.06
2022-08-19T10:00:59.689Z,999.07
2022-08-19T10:02:03.896Z,999.02
2022-08-19T10:03:03.663Z,999.03
2022-08-19T10:04:07.566Z,999.07
2022-08-19T10:05:05.804Z,999.07
2022-08-19T10:06:14.806Z,999.03
2022-08-19T10:07:09.212Z,999.06
2022-08-19T10:08:13.513Z,999.07
2022-08-19T10:09:11.685Z,999.00
2022-08-19T10:10:12.601Z,998.98
2022-08-19T10:11:27.457Z,998.98
2022-08-19T10:12:17.849Z,998.84
2022-08-19T10:13:17.693Z,998.80
2022-08-19T10:14:18.811Z,998.83
2022-08-19T10:15:29.020Z,998.88
2022-08-19T10:16:21.330Z,998.79
2022-08-19T10:17:27.419Z,998.89
2022-08-19T10:18:24.605Z,998.82
2022-08-19T10:19:26.464Z,998.82
2022-08-19T10:20:27.684Z,998.88
2022-08-19T10:21:29.816Z,998.81
2022-08-19T10:22:31.957Z,998.81
2022-08-19T10:23:34.032Z,998.83
2022-08-19T10:24:35.329Z,998.83
2022-08-19T10:25:36.592Z,998.79
2022-08-19T10:26:38.106Z,998.86
2022-08-19T10:27:40.429Z,998.91
2022-08-19T10:28:42.756Z,998.94
2022-08-19T10:29:46.228Z,998.97
2022-08-19T10:30:43.962Z,998.97
2022-08-19T10:32:00.924Z,999.03
2022-08-19T10:32:49.382Z,999.01
2022-08-19T10:33:54.381Z,999.01
2022-08-19T10:34:49.476Z,998.94
2022-08-19T10:35:56.977Z,998.93
2022-08-19T10:37:01.944Z,998.98
2022-08-19T10:37:57.401Z,998.94
2022-08-19T10:38:58.496Z,998.92
2022-08-19T10:39:57.197Z,998.93
2022-08-19T10:40:58.378Z,998.94
2022-08-19T10:42:00.453Z,998.95
2022-08-19T10:43:02.424Z,998.99
2022-08-19T10:44:04.366Z,999.01
2022-08-19T10:45:05.083Z,998.97
2022-08-19T10:46:13.713Z,998.99
2022-08-19T10:47:11.441Z,999.06
2022-08-19T10:48:12.167Z,999.08
2022-08-19T10:49:11.925Z,999.11
2022-08-19T10:50:14.017Z,999.12
2022-08-19T10:51:22.923Z,999.11
2022-08-19T10:52:20.278Z,999.17
2022-08-19T10:53:18.468Z,999.19
2022-08-19T10:54:29.582Z,999.18
2022-08-19T10:56:23.074Z,999.19
2022-08-19T10:57:27.923Z,999.16
2022-08-19T10:58:26.736Z,999.17
2022-08-19T10:59:32.579Z,999.10
2022-08-19T11:01:31.941Z,999.10
2022-08-19T11:02:33.109Z,999.08
2022-08-19T11:03:35.202Z,999.06
2022-08-19T11:04:37.548Z,999.05
2022-08-19T11:05:39.769Z,999.00
2022-08-19T11:06:41.367Z,998.99
2022-08-19T11:07:43.678Z,999.06
2022-08-19T11:08:45.241Z,999.03
2022-08-19T11:09:46.153Z,998.99
2022-08-19T11:10:50.469Z,999.00
2022-08-19T11:11:49.538Z,999.03
2022-08-19T11:12:50.436Z,999.02
2022-08-19T11:14:54.411Z,999.02
2022-08-19T11:15:56.446Z,999.03
2022-08-19T11:16:58.685Z,999.04
2022-08-19T11:17:59.583Z,999.10
2022-08-19T11:19:01.358Z,999.15
2022-08-19T11:20:02.259Z,999.16
2022-08-19T11:21:04.363Z,999.21
2022-08-19T11:22:06.451Z,999.22
2022-08-19T11:23:08.290Z,999.20
2022-08-19T11:24:10.617Z,999.26
2022-08-19T11:25:12.207Z,999.24
2022-08-19T11:26:14.381Z,999.22
2022-08-19T11:27:16.621Z,999.22
2022-08-19T11:28:18.690Z,999.25
2022-08-19T11:29:21.018Z,999.27
2022-08-19T11:30:21.960Z,999.25
2022-08-19T11:31:23.144Z,999.26
2022-08-19T11:32:24.511Z,999.28
2022-08-19T11:33:26.577Z,999.35
2022-08-19T11:34:27.757Z,999.29
2022-08-19T11:35:29.318Z,999.35
2022-08-19T11:36:30.631Z,999.40
2022-08-19T11:37:37.916Z,999.42
2022-08-19T11:38:33.265Z,999.46
2022-08-19T11:39:34.433Z,999.45
2022-08-19T11:40:36.540Z,999.46
2022-08-19T11:41:38.602Z,999.47
2022-08-19T11:42:46.732Z,999.50
2022-08-19T11:43:42.442Z,999.49
2022-08-19T11:44:46.891Z,999.50
2022-08-19T11:45:46.637Z,999.50
2022-08-19T11:46:48.424Z,999.50
2022-08-19T11:47:49.882Z,999.48
2022-08-19T11:48:50.817Z,999.48
2022-08-19T11:49:51.963Z,999.49
2022-08-19T11:50:53.120Z,999.54
2022-08-19T11:51:54.250Z,999.50
2022-08-19T11:52:56.583Z,999.48
2022-08-19T11:53:57.493Z,999.47
2022-08-19T11:54:58.686Z,999.48
2022-08-19T11:56:00.763Z,999.46
2022-08-19T11:57:02.344Z,999.47
2022-08-19T11:58:04.447Z,999.46
2022-08-19T11:59:06.619Z,999.48
2022-08-19T12:00:08.686Z,999.44
2022-08-19T12:01:10.975Z,999.42
2022-08-19T12:02:18.164Z,999.44
2022-08-19T12:03:14.392Z,999.34
2022-08-19T12:04:16.567Z,999.39
2022-08-19T12:05:18.666Z,999.35
2022-08-19T12:06:20.040Z,999.28
2022-08-19T12:07:22.113Z,999.29
2022-08-19T12:08:24.290Z,999.29
2022-08-19T12:09:26.382Z,999.31
2022-08-19T12:10:28.445Z,999.37
2022-08-19T12:11:31.202Z,999.34
2022-08-19T12:12:32.040Z,999.34
2022-08-19T12:13:33.708Z,999.31
2022-08-19T12:14:35.795Z,999.29
2022-08-19T12:15:37.868Z,999.30
2022-08-19T12:16:44.790Z,999.22
2022-08-19T12:17:42.420Z,999.19
2022-08-19T12:18:43.522Z,999.20
2022-08-19T12:19:45.616Z,999.16
2022-08-19T12:20:46.826Z,999.19
2022-08-19T12:21:49.102Z,999.19
2022-08-19T12:22:51.292Z,999.19
2022-08-19T12:23:55.626Z,999.23
2022-08-19T12:24:54.553Z,999.21
2022-08-19T12:25:56.620Z,999.16
2022-08-19T12:27:00.896Z,999.14
2022-08-19T12:28:01.219Z,999.09
2022-08-19T12:29:02.355Z,999.05
2022-08-19T12:30:04.495Z,999.06
2022-08-19T12:31:06.563Z,999.09
2022-08-19T12:32:08.636Z,999.03
2022-08-19T12:33:10.572Z,998.96
2022-08-19T12:34:12.914Z,998.94
2022-08-19T12:35:13.850Z,998.99
2022-08-19T12:36:15.936Z,998.96
2022-08-19T12:37:18.024Z,998.94
2022-08-19T12:38:19.239Z,998.94
2022-08-19T12:39:21.322Z,998.92
2022-08-19T12:40:23.398Z,998.89
2022-08-19T12:41:24.912Z,998.86
2022-08-19T12:42:27.098Z,998.88
2022-08-19T12:43:28.090Z,999.00
2022-08-19T12:44:32.057Z,998.88
2022-08-19T12:45:30.049Z,998.91
2022-08-19T12:46:38.187Z,998.89
2022-08-19T12:47:33.334Z,999.05
2022-08-19T12:48:35.610Z,999.03
2022-08-19T12:49:52.354Z,999.06
2022-08-19T12:50:37.735Z,999.06
2022-08-19T12:51:45.999Z,999.01
2022-08-19T12:52:41.119Z,999.02
2022-08-19T12:53:43.189Z,999.02
2022-08-19T12:54:44.338Z,999.10
2022-08-19T12:55:46.415Z,999.03
2022-08-19T12:56:48.498Z,999.07
2022-08-19T12:57:50.667Z,999.00
2022-08-19T12:58:52.923Z,999.00
2022-08-19T12:59:54.186Z,999.02
2022-08-19T13:00:56.408Z,999.01
2022-08-19T13:01:58.497Z,999.03
2022-08-19T13:03:00.570Z,999.03
2022-08-19T13:04:02.647Z,999.04
2022-08-19T13:05:04.717Z,999.09
2022-08-19T13:06:06.858Z,999.07
2022-08-19T13:07:08.968Z,999.08
2022-08-19T13:08:17.169Z,999.08
2022-08-19T13:09:12.240Z,999.08
2022-08-19T13:10:14.307Z,999.10
2022-08-19T13:11:16.429Z,999.10
2022-08-19T13:12:18.732Z,999.20
2022-08-19T13:13:20.943Z,999.14
2022-08-19T13:14:23.020Z,999.15
2022-08-19T13:15:25.308Z,999.22
2022-08-19T13:16:26.253Z,999.18
2022-08-19T13:17:28.540Z,999.17
2022-08-19T13:18:29.530Z,999.17
2022-08-19T13:19:30.665Z,999.18
2022-08-19T13:20:32.262Z,999.21
2022-08-19T13:21:34.364Z,999.14
2022-08-19T13:22:35.581Z,999.15
2022-08-19T13:23:37.658Z,999.14
2022-08-19T13:24:38.904Z,999.13
2022-08-19T13:25:40.944Z,999.13
2022-08-19T13:26:43.040Z,999.11
2022-08-19T13:27:45.118Z,999.15
2022-08-19T13:28:47.230Z,999.14
2022-08-19T13:29:49.313Z,999.16
2022-08-19T13:30:51.403Z,999.20
2022-08-19T13:31:53.486Z,999.18
2022-08-19T13:32:55.622Z,999.21
2022-08-19T13:33:56.761Z,999.20
2022-08-19T13:34:58.885Z,999.27
2022-08-19T13:36:00.975Z,999.34
2022-08-19T13:37:02.111Z,999.35
2022-08-19T13:38:04.175Z,999.32
2022-08-19T13:39:06.242Z,999.36
2022-08-19T13:40:08.374Z,999.38
2022-08-19T13:41:14.409Z,999.39
2022-08-19T13:42:12.392Z,999.40
2022-08-19T13:43:22.545Z,999.38
2022-08-19T13:44:16.683Z,999.41
2022-08-19T13:45:17.599Z,999.43
2022-08-19T13:46:19.671Z,999.37
2022-08-19T13:47:21.830Z,999.42
2022-08-19T13:48:23.864Z,999.42
2022-08-19T13:49:25.931Z,999.44
2022-08-19T13:50:27.165Z,999.52
2022-08-19T13:51:28.920Z,999.51
2022-08-19T13:52:35.933Z,999.52
2022-08-19T13:53:31.009Z,999.53
2022-08-19T13:54:33.132Z,999.54
2022-08-19T13:55:35.172Z,999.52
2022-08-19T13:56:37.269Z,999.51
2022-08-19T13:57:39.376Z,999.48
2022-08-19T13:58:41.696Z,999.42
2022-08-19T13:59:43.767Z,999.45
2022-08-19T14:00:45.924Z,999.44
2022-08-19T14:01:48.166Z,999.43
2022-08-19T14:02:49.327Z,999.43
2022-08-19T14:03:51.453Z,999.40
2022-08-19T14:04:53.523Z,999.41
2022-08-19T14:05:55.597Z,999.43
2022-08-19T14:06:57.674Z,999.48
2022-08-19T14:07:58.803Z,999.49
2022-08-19T14:09:01.092Z,999.45
2022-08-19T14:10:02.044Z,999.45
2022-08-19T14:11:06.650Z,999.44
2022-08-19T14:12:05.434Z,999.43
2022-08-19T14:13:07.512Z,999.44
2022-08-19T14:14:12.257Z,999.43
2022-08-19T14:15:11.985Z,999.43
2022-08-19T14:16:12.899Z,999.40
2022-08-19T14:17:14.040Z,999.35
2022-08-19T14:18:15.159Z,999.33
2022-08-19T14:19:17.237Z,999.35
2022-08-19T14:20:19.315Z,999.30
2022-08-19T14:21:21.389Z,999.26
2022-08-19T14:22:23.482Z,999.27
2022-08-19T14:23:25.661Z,999.23
2022-08-19T14:24:28.067Z,999.23
2022-08-19T14:25:29.269Z,999.24
2022-08-19T14:26:31.340Z,999.29
2022-08-19T14:27:33.436Z,999.31
2022-08-19T14:28:35.530Z,999.36
2022-08-19T14:29:37.907Z,999.33
2022-08-19T14:30:40.087Z,999.34
2022-08-19T14:31:42.212Z,999.35
2022-08-19T14:32:44.643Z,999.33
2022-08-19T14:33:45.654Z,999.33
2022-08-19T14:34:47.787Z,999.36
2022-08-19T14:35:49.914Z,999.38
2022-08-19T14:36:50.948Z,999.38
2022-08-19T14:37:53.027Z,999.39
2022-08-19T14:39:01.153Z,999.40
2022-08-19T14:39:56.633Z,999.36
2022-08-19T14:40:57.825Z,999.39
2022-08-19T14:41:59.948Z,999.38
2022-08-19T14:43:01.722Z,999.37
2022-08-19T14:44:03.910Z,999.36
2022-08-19T14:45:06.160Z,999.33
2022-08-19T14:46:08.231Z,999.33
2022-08-19T14:47:10.032Z,999.32
2022-08-19T14:48:19.178Z,999.35
2022-08-19T14:49:13.005Z,999.31
2022-08-19T14:50:17.908Z,999.29
2022-08-19T14:51:16.097Z,999.29
2022-08-19T14:52:17.233Z,999.29
2022-08-19T14:53:19.300Z,999.27
2022-08-19T14:54:21.393Z,999.23
2022-08-19T14:55:22.685Z,999.20
2022-08-19T14:56:24.754Z,999.25
2022-08-19T14:57:26.901Z,999.21
2022-08-19T14:58:30.430Z,999.21
2022-08-19T14:59:30.351Z,999.22
2022-08-19T15:00:32.787Z,999.27
2022-08-19T15:01:33.686Z,999.30
2022-08-19T15:02:35.841Z,999.30
2022-08-19T15:03:37.933Z,999.27
2022-08-19T15:04:39.998Z,999.25
2022-08-19T15:05:41.769Z,999.26
2022-08-19T15:06:43.834Z,999.29
2022-08-19T15:07:45.901Z,999.31
2022-08-19T15:08:47.992Z,999.31
2022-08-19T15:09:50.105Z,999.31
2022-08-19T15:10:52.056Z,999.34
2022-08-19T15:11:54.167Z,999.34
2022-08-19T15:12:56.474Z,999.36
2022-08-19T15:13:57.706Z,999.38
2022-08-19T15:14:59.842Z,999.43
2022-08-19T15:16:01.975Z,999.42
2022-08-19T15:17:04.020Z,999.43
2022-08-19T15:18:06.101Z,999.44
2022-08-19T15:19:08.151Z,999.46
2022-08-19T15:20:10.220Z,999.49
2022-08-19T15:21:12.390Z,999.48
2022-08-19T15:22:13.302Z,999.48
2022-08-19T15:23:15.401Z,999.51
2022-08-19T15:24:16.549Z,999.51
2022-08-19T15:25:18.270Z,999.52
2022-08-19T15:26:20.316Z,999.56
2022-08-19T15:27:22.470Z,999.52
2022-08-19T15:28:23.352Z,999.50
2022-08-19T15:29:25.423Z,999.50
2022-08-19T15:30:27.499Z,999.38
2022-08-19T15:31:29.109Z,999.40
2022-08-19T15:32:30.327Z,999.35
2022-08-19T15:33:31.503Z,999.29
2022-08-19T15:35:35.335Z,999.26
2022-08-19T15:36:37.375Z,999.21
2022-08-19T15:37:39.462Z,999.22
2022-08-19T15:38:45.885Z,999.22
2022-08-19T15:39:43.631Z,999.26
2022-08-19T15:40:44.702Z,999.27
2022-08-19T15:41:46.780Z,999.27
2022-08-19T15:42:48.858Z,999.36
2022-08-19T15:43:51.004Z,999.35
2022-08-19T15:45:00.639Z,999.38
2022-08-19T15:45:54.809Z,999.40
2022-08-19T15:46:56.892Z,999.41
2022-08-19T15:47:58.970Z,999.39
2022-08-19T15:49:01.058Z,999.40
2022-08-19T15:50:03.202Z,999.38
2022-08-19T15:51:04.200Z,999.33
2022-08-19T15:52:06.279Z,999.35
2022-08-19T15:53:08.501Z,999.33
2022-08-19T15:54:09.368Z,999.32
2022-08-19T15:55:11.459Z,999.31
2022-08-19T15:56:13.862Z,999.33
2022-08-19T15:57:14.802Z,999.31
2022-08-19T15:58:27.964Z,999.30
2022-08-19T15:59:19.232Z,999.30
2022-08-19T16:00:20.243Z,999.33
2022-08-19T16:01:23.546Z,999.33
2022-08-19T16:02:23.673Z,999.32
2022-08-19T16:03:25.932Z,999.33
2022-08-19T16:04:26.998Z,999.33
2022-08-19T16:05:28.146Z,999.37
2022-08-19T16:06:36.496Z,999.31
2022-08-19T16:07:31.667Z,999.36
2022-08-19T16:08:48.797Z,999.38
2022-08-19T16:09:36.143Z,999.36
2022-08-19T16:10:37.086Z,999.38
2022-08-19T16:11:39.822Z,999.36
2022-08-19T16:12:46.882Z,999.39
2022-08-19T16:13:42.347Z,999.40
2022-08-19T16:14:44.533Z,999.40
2022-08-19T16:15:46.702Z,999.42
2022-08-19T16:16:47.638Z,999.38
2022-08-19T16:17:56.504Z,999.35
2022-08-19T16:18:51.910Z,999.41
2022-08-19T16:19:52.917Z,999.39
2022-08-19T16:20:54.987Z,999.35
2022-08-19T16:21:57.061Z,999.37
2022-08-19T16:22:59.100Z,999.40
2022-08-19T16:24:00.211Z,999.35
2022-08-19T16:25:07.619Z,999.35
2022-08-19T16:26:02.693Z,999.30
2022-08-19T16:27:04.845Z,999.33
2022-08-19T16:28:08.546Z,999.29
2022-08-19T16:29:08.802Z,999.30
2022-08-19T16:30:09.385Z,999.31
2022-08-19T16:31:10.527Z,999.29
2022-08-19T16:32:12.598Z,999.31
2022-08-19T16:33:22.834Z,999.28
2022-08-19T16:34:17.001Z,999.30
2022-08-19T16:35:17.901Z,999.24
2022-08-19T16:36:20.037Z,999.23
2022-08-19T16:37:21.461Z,999.19
2022-08-19T16:38:23.132Z,999.21
2022-08-19T16:39:24.842Z,999.18
2022-08-19T16:40:26.917Z,999.18
2022-08-19T16:41:28.992Z,999.18
2022-08-19T16:42:31.103Z,999.16
2022-08-19T16:43:33.184Z,999.12
2022-08-19T16:45:36.507Z,999.09
2022-08-19T16:46:37.682Z,999.13
2022-08-19T16:47:39.793Z,999.12
2022-08-19T16:48:41.856Z,999.10
2022-08-19T16:49:52.869Z,999.07
2022-08-19T16:50:49.678Z,999.08
2022-08-19T16:51:46.078Z,999.12
2022-08-19T16:52:47.206Z,999.08
2022-08-19T16:53:49.324Z,999.13
2022-08-19T16:55:53.186Z,999.17
2022-08-19T16:56:55.304Z,999.23
2022-08-19T16:57:57.345Z,999.25
2022-08-19T16:58:59.414Z,999.26
2022-08-19T17:00:01.543Z,999.25
2022-08-19T17:01:04.367Z,999.29
2022-08-19T17:02:05.593Z,999.32
2022-08-19T17:03:07.072Z,999.31
2022-08-19T17:04:09.148Z,999.34
2022-08-19T17:05:11.218Z,999.36
2022-08-19T17:06:18.528Z,999.35
2022-08-19T17:07:15.558Z,999.41
2022-08-19T17:08:16.427Z,999.40
2022-08-19T17:09:17.546Z,999.39
2022-08-19T17:10:19.761Z,999.43
2022-08-19T17:11:20.703Z,999.44
2022-08-19T17:12:21.641Z,999.43
2022-08-19T17:13:23.785Z,999.46
2022-08-19T17:14:25.868Z,999.47
2022-08-19T17:15:27.935Z,999.48
2022-08-19T17:16:29.365Z,999.47
2022-08-19T17:17:31.439Z,999.48